createdAt,value
2023-01-17T00:02:11.085Z,4.10
2023-01-17T00:04:56.373Z,4.00
2023-01-17T00:07:43.217Z,4.10
2023-01-17T00:10:16.726Z,4.20
2023-01-17T00:12:55.422Z,4.10
2023-01-17T00:15:26.025Z,4.00
2023-01-17T00:17:53.907Z,4.00
2023-01-17T00:20:50.259Z,4.00
2023-01-17T00:23:40.245Z,3.80
2023-01-17T00:26:16.734Z,3.90
2023-01-17T00:28:44.693Z,3.90
2023-01-17T00:31:14.342Z,3.90
2023-01-17T00:33:41.142Z,3.90
2023-01-17T00:36:08.681Z,3.90
2023-01-17T00:38:37.512Z,3.90
2023-01-17T00:41:13.851Z,3.90
2023-01-17T00:43:59.341Z,3.80
2023-01-17T00:46:45.263Z,3.80
2023-01-17T00:49:31.057Z,3.80
2023-01-17T00:52:16.553Z,3.70
2023-01-17T00:55:02.087Z,3.60
2023-01-17T00:57:47.786Z,3.60
2023-01-17T01:00:33.810Z,3.60
2023-01-17T01:03:19.330Z,3.60
2023-01-17T01:06:04.806Z,3.70
2023-01-17T01:08:51.025Z,3.70
2023-01-17T01:11:39.370Z,3.80
2023-01-17T01:14:26.196Z,3.80
2023-01-17T01:17:11.520Z,3.90
2023-01-17T01:19:56.950Z,3.80
2023-01-17T01:22:42.585Z,3.70
2023-01-17T01:25:28.211Z,3.70
2023-01-17T01:28:25.588Z,3.70
2023-01-17T01:31:11.191Z,3.80
2023-01-17T01:33:38.178Z,3.80
2023-01-17T01:36:08.345Z,3.80
2023-01-17T01:38:35.272Z,3.80
2023-01-17T01:41:02.589Z,3.70
2023-01-17T01:43:58.616Z,3.80
2023-01-17T01:46:36.449Z,3.90
2023-01-17T01:49:08.552Z,3.80
2023-01-17T01:51:51.111Z,3.90
2023-01-17T01:54:25.633Z,3.70
2023-01-17T01:56:54.767Z,3.80
2023-01-17T01:59:23.051Z,3.80
2023-01-17T02:01:53.107Z,3.80
2023-01-17T02:04:21.092Z,3.80
2023-01-17T02:06:51.922Z,3.80
2023-01-17T02:09:20.184Z,3.80
2023-01-17T02:11:48.840Z,3.80
2023-01-17T02:14:17.245Z,3.80
2023-01-17T02:16:53.049Z,3.90
2023-01-17T02:19:57.520Z,4.00
2023-01-17T02:22:24.270Z,3.80
2023-01-17T02:25:18.992Z,3.90
2023-01-17T02:28:26.957Z,3.90
2023-01-17T02:31:04.500Z,3.90
2023-01-17T02:34:10.440Z,4.00
2023-01-17T02:36:47.424Z,4.00
2023-01-17T02:39:21.728Z,3.90
2023-01-17T02:42:00.894Z,3.90
2023-01-17T02:44:27.798Z,3.90
2023-01-17T02:46:57.196Z,3.90
2023-01-17T02:49:30.490Z,3.90
2023-01-17T02:52:16.587Z,3.90
2023-01-17T02:54:43.360Z,4.00
2023-01-17T02:57:10.171Z,4.00
2023-01-17T03:00:00.387Z,3.90
2023-01-17T03:02:51.769Z,3.90
2023-01-17T03:06:07.856Z,3.90
2023-01-17T03:08:35.123Z,3.90
2023-01-17T03:11:02.025Z,3.90
2023-01-17T03:13:28.977Z,3.90
2023-01-17T03:15:55.788Z,4.10
2023-01-17T03:18:22.904Z,3.90
2023-01-17T03:20:49.731Z,4.00
2023-01-17T03:23:16.570Z,4.00
2023-01-17T03:25:43.387Z,3.80
2023-01-17T03:28:10.230Z,3.90
2023-01-17T03:30:37.062Z,3.80
2023-01-17T03:33:04.110Z,3.80
2023-01-17T03:35:30.946Z,3.80
2023-01-17T03:37:57.801Z,3.80
2023-01-17T03:40:24.624Z,3.80
2023-01-17T03:42:51.489Z,3.70
2023-01-17T03:45:18.538Z,3.70
2023-01-17T03:47:45.604Z,3.70
2023-01-17T03:50:13.593Z,3.70
2023-01-17T03:52:40.462Z,3.70
2023-01-17T03:55:07.953Z,3.70
2023-01-17T03:57:34.803Z,3.60
2023-01-17T04:00:01.661Z,3.60
2023-01-17T04:02:28.595Z,3.60
2023-01-17T04:04:55.521Z,3.60
2023-01-17T04:07:23.013Z,3.60
2023-01-17T04:09:50.114Z,3.50
2023-01-17T04:12:17.083Z,3.50
2023-01-17T04:14:43.942Z,3.40
2023-01-17T04:17:13.129Z,3.50
2023-01-17T04:19:41.204Z,3.40
2023-01-17T04:22:08.493Z,3.40
2023-01-17T04:24:35.466Z,3.40
2023-01-17T04:27:04.270Z,3.40
2023-01-17T04:29:31.243Z,3.40
2023-01-17T04:31:58.178Z,3.50
2023-01-17T04:34:25.052Z,3.40
2023-01-17T04:36:51.911Z,3.50
2023-01-17T04:39:18.748Z,3.50
2023-01-17T04:41:45.568Z,3.50
2023-01-17T04:44:12.379Z,3.50
2023-01-17T04:46:39.214Z,3.60
2023-01-17T04:49:06.086Z,3.60
2023-01-17T04:51:33.048Z,3.50
2023-01-17T04:53:59.985Z,3.50
2023-01-17T04:56:26.869Z,3.50
2023-01-17T04:58:53.711Z,3.60
2023-01-17T05:01:20.705Z,3.70
2023-01-17T05:03:48.015Z,3.60
2023-01-17T05:06:15.204Z,3.70
2023-01-17T05:08:42.095Z,3.60
2023-01-17T05:11:09.010Z,3.60
2023-01-17T05:13:35.913Z,3.60
2023-01-17T05:16:02.812Z,3.50
2023-01-17T05:18:29.736Z,3.50
2023-01-17T05:21:04.364Z,3.60
2023-01-17T05:23:31.240Z,3.60
2023-01-17T05:25:58.080Z,3.50
2023-01-17T05:28:25.619Z,3.60
2023-01-17T05:30:52.554Z,3.60
2023-01-17T05:33:19.393Z,3.60
2023-01-17T05:35:46.302Z,3.60
2023-01-17T05:38:13.128Z,3.60
2023-01-17T05:40:39.960Z,3.60
2023-01-17T05:43:06.868Z,3.60
2023-01-17T05:45:34.245Z,3.60
2023-01-17T05:48:02.128Z,3.70
2023-01-17T05:50:34.933Z,3.70
2023-01-17T05:53:10.608Z,3.60
2023-01-17T05:55:39.090Z,3.70
2023-01-17T05:58:08.739Z,3.60
2023-01-17T06:00:37.357Z,3.50
2023-01-17T06:03:04.629Z,3.60
2023-01-17T06:05:31.884Z,3.60
2023-01-17T06:07:59.148Z,3.60
2023-01-17T06:10:26.828Z,3.60
2023-01-17T06:13:08.763Z,3.60
2023-01-17T06:15:37.325Z,3.50
2023-01-17T06:18:12.397Z,3.40
2023-01-17T06:20:40.232Z,3.50
2023-01-17T06:23:10.106Z,3.50
2023-01-17T06:25:45.344Z,3.50
2023-01-17T06:28:14.455Z,3.40
2023-01-17T06:30:42.460Z,3.40
2023-01-17T06:33:09.662Z,3.40
2023-01-17T06:35:40.975Z,3.30
2023-01-17T06:38:10.003Z,3.20
2023-01-17T06:40:36.980Z,3.30
2023-01-17T06:43:05.581Z,3.20
2023-01-17T06:45:34.656Z,3.20
2023-01-17T06:48:04.209Z,3.20
2023-01-17T06:50:31.762Z,3.20
2023-01-17T06:53:01.053Z,3.20
2023-01-17T06:55:29.288Z,3.20
2023-01-17T06:57:57.344Z,3.20
2023-01-17T07:00:24.461Z,3.10
2023-01-17T07:02:51.831Z,3.10
2023-01-17T07:05:19.031Z,3.10
2023-01-17T07:07:46.372Z,3.10
2023-01-17T07:10:15.245Z,3.00
2023-01-17T07:12:42.395Z,3.00
2023-01-17T07:15:09.986Z,3.00
2023-01-17T07:17:36.970Z,2.90
2023-01-17T07:20:04.240Z,2.80
2023-01-17T07:22:31.152Z,2.80
2023-01-17T07:25:00.750Z,2.70
2023-01-17T07:27:30.529Z,2.80
2023-01-17T07:29:57.982Z,2.80
2023-01-17T07:32:26.741Z,2.80
2023-01-17T07:34:54.306Z,2.80
2023-01-17T07:37:21.450Z,2.70
2023-01-17T07:39:48.359Z,2.80
2023-01-17T07:42:15.460Z,2.80
2023-01-17T07:44:44.126Z,2.80
2023-01-17T07:47:11.457Z,2.70
2023-01-17T07:49:38.373Z,2.70
2023-01-17T07:52:07.541Z,2.60
2023-01-17T07:54:34.765Z,2.70
2023-01-17T07:57:02.292Z,2.80
2023-01-17T07:59:29.320Z,2.70
2023-01-17T08:01:56.388Z,2.70
2023-01-17T08:04:26.465Z,2.70
2023-01-17T08:06:55.047Z,2.70
2023-01-17T08:09:22.127Z,2.70
2023-01-17T08:11:49.003Z,2.70
2023-01-17T08:14:15.898Z,2.70
2023-01-17T08:16:42.849Z,2.60
2023-01-17T08:19:10.399Z,2.60
2023-01-17T08:21:37.582Z,2.50
2023-01-17T08:24:04.784Z,2.50
2023-01-17T08:26:31.748Z,2.70
2023-01-17T08:29:03.384Z,2.60
2023-01-17T08:31:31.038Z,2.70
2023-01-17T08:33:58.131Z,2.70
2023-01-17T08:36:25.924Z,2.60
2023-01-17T08:38:53.579Z,2.50
2023-01-17T08:41:21.471Z,2.70
2023-01-17T08:43:49.114Z,2.70
2023-01-17T08:46:16.878Z,2.60
2023-01-17T08:48:44.446Z,2.60
2023-01-17T08:51:11.967Z,2.60
2023-01-17T08:53:38.899Z,2.60
2023-01-17T08:56:06.138Z,2.60
2023-01-17T08:58:35.016Z,2.60
2023-01-17T09:01:06.566Z,2.60
2023-01-17T09:03:34.227Z,2.70
2023-01-17T09:06:08.628Z,2.70
2023-01-17T09:08:36.126Z,2.70
2023-01-17T09:11:11.532Z,2.60
2023-01-17T09:13:40.433Z,2.70
2023-01-17T09:16:08.588Z,2.60
2023-01-17T09:18:36.766Z,2.60
2023-01-17T09:21:14.382Z,2.60
2023-01-17T09:23:41.722Z,2.60
2023-01-17T09:26:17.823Z,2.60
2023-01-17T09:28:44.682Z,2.70
2023-01-17T09:31:11.685Z,2.60
2023-01-17T09:33:41.091Z,2.70
2023-01-17T09:36:08.188Z,2.60
2023-01-17T09:38:35.053Z,2.60
2023-01-17T09:41:03.416Z,2.60
2023-01-17T09:43:41.528Z,2.60
2023-01-17T09:46:22.693Z,2.60
2023-01-17T09:49:00.807Z,2.70
2023-01-17T09:51:27.859Z,2.70
2023-01-17T09:53:55.347Z,2.70
2023-01-17T09:56:40.132Z,2.60
2023-01-17T09:59:33.123Z,2.60
2023-01-17T10:02:26.310Z,2.70
2023-01-17T10:05:07.393Z,2.70
2023-01-17T10:08:00.629Z,2.70
2023-01-17T10:10:30.865Z,2.70
2023-01-17T10:13:04.961Z,2.70
2023-01-17T10:16:01.443Z,2.70
2023-01-17T10:18:53.059Z,2.70
2023-01-17T10:21:42.378Z,2.80
2023-01-17T10:24:36.733Z,2.80
2023-01-17T10:27:13.022Z,2.70
2023-01-17T10:29:41.248Z,2.70
2023-01-17T10:32:12.716Z,2.70
2023-01-17T10:34:51.747Z,2.70
2023-01-17T10:37:24.418Z,2.80
2023-01-17T10:39:54.046Z,2.80
2023-01-17T10:42:26.389Z,2.90
2023-01-17T10:45:20.845Z,2.90
2023-01-17T10:47:53.555Z,2.80
2023-01-17T10:50:24.160Z,2.90
2023-01-17T10:53:07.481Z,2.80
2023-01-17T10:55:48.866Z,2.90
2023-01-17T10:58:15.796Z,2.90
2023-01-17T11:00:44.196Z,2.90
2023-01-17T11:03:13.752Z,2.90
2023-01-17T11:05:42.832Z,2.90
2023-01-17T11:08:14.520Z,3.00
2023-01-17T11:10:54.370Z,3.00
2023-01-17T11:13:35.427Z,3.00
2023-01-17T11:16:10.777Z,2.90
2023-01-17T11:18:41.049Z,3.00
2023-01-17T11:21:16.581Z,3.00
2023-01-17T11:23:46.842Z,3.00
2023-01-17T11:26:30.605Z,3.00
2023-01-17T11:29:16.240Z,2.90
2023-01-17T11:31:43.137Z,3.00
2023-01-17T11:34:25.030Z,3.10
2023-01-17T11:37:17.246Z,3.10
2023-01-17T11:39:48.043Z,3.20
2023-01-17T11:42:36.632Z,3.20
2023-01-17T11:45:29.786Z,3.20
2023-01-17T11:48:15.175Z,3.30
2023-01-17T11:50:53.676Z,3.20
2023-01-17T11:53:24.910Z,3.10
2023-01-17T11:56:08.814Z,3.20
2023-01-17T11:58:39.937Z,3.20
2023-01-17T12:01:18.445Z,3.20
2023-01-17T12:04:11.045Z,3.30
2023-01-17T12:06:58.118Z,3.30
2023-01-17T12:09:48.217Z,3.40
2023-01-17T12:13:03.761Z,3.30
2023-01-17T12:15:45.338Z,3.40
2023-01-17T12:18:15.307Z,3.50
2023-01-17T12:21:00.628Z,3.40
2023-01-17T12:23:41.939Z,3.40
2023-01-17T12:26:21.875Z,3.40
2023-01-17T12:28:56.864Z,3.40
2023-01-17T12:31:32.598Z,3.40
2023-01-17T12:34:35.454Z,3.40
2023-01-17T12:37:23.537Z,3.50
2023-01-17T12:40:13.574Z,3.40
2023-01-17T12:42:56.605Z,3.60
2023-01-17T12:45:38.440Z,3.60
2023-01-17T12:48:10.226Z,3.50
2023-01-17T12:50:51.329Z,3.50
2023-01-17T12:53:24.196Z,3.50
2023-01-17T12:56:00.363Z,3.50
2023-01-17T12:58:30.853Z,3.50
2023-01-17T13:01:05.460Z,3.60
2023-01-17T13:04:01.799Z,3.60
2023-01-17T13:06:36.025Z,3.50
2023-01-17T13:09:04.951Z,3.60
2023-01-17T13:11:43.828Z,3.60
2023-01-17T13:14:10.911Z,3.60
2023-01-17T13:17:03.771Z,3.70
2023-01-17T13:20:08.032Z,3.70
2023-01-17T13:22:37.892Z,3.70
2023-01-17T13:25:42.360Z,3.70
2023-01-17T13:28:40.036Z,3.80
2023-01-17T13:31:25.605Z,3.80
2023-01-17T13:34:04.975Z,3.80
2023-01-17T13:37:08.915Z,3.90
2023-01-17T13:39:57.570Z,3.80
2023-01-17T13:42:50.699Z,3.90
2023-01-17T13:45:25.982Z,4.00
2023-01-17T13:47:54.075Z,3.90
2023-01-17T13:50:57.980Z,3.90
2023-01-17T13:53:39.755Z,4.00
2023-01-17T13:56:15.745Z,4.00
2023-01-17T13:58:50.186Z,4.00
2023-01-17T14:01:23.268Z,4.00
2023-01-17T14:03:50.359Z,3.90
2023-01-17T14:06:36.304Z,4.00
2023-01-17T14:09:21.989Z,4.00
2023-01-17T14:12:03.828Z,4.00
2023-01-17T14:14:44.428Z,4.00
2023-01-17T14:17:25.625Z,4.10
2023-01-17T14:19:53.718Z,4.20
2023-01-17T14:22:20.555Z,4.10
2023-01-17T14:25:17.995Z,4.00
2023-01-17T14:27:51.532Z,4.20
2023-01-17T14:30:18.673Z,4.10
2023-01-17T14:33:01.122Z,4.20
2023-01-17T14:35:31.085Z,4.30
2023-01-17T14:37:58.202Z,4.20
2023-01-17T14:40:29.580Z,4.20
2023-01-17T14:43:05.634Z,4.10
2023-01-17T14:45:35.086Z,4.20
2023-01-17T14:48:05.722Z,4.20
2023-01-17T14:50:39.346Z,4.20
2023-01-17T14:53:29.885Z,4.10
2023-01-17T14:56:01.976Z,4.20
2023-01-17T14:58:28.868Z,4.20
2023-01-17T15:01:01.513Z,4.20
2023-01-17T15:03:30.653Z,4.20
2023-01-17T15:06:09.871Z,4.20
2023-01-17T15:08:36.844Z,4.20
2023-01-17T15:11:07.613Z,4.20
2023-01-17T15:13:44.664Z,4.20
2023-01-17T15:16:27.185Z,4.20
2023-01-17T15:18:55.632Z,4.30
2023-01-17T15:21:26.422Z,4.30
2023-01-17T15:23:56.305Z,4.40
2023-01-17T15:26:26.236Z,4.40
2023-01-17T15:29:00.181Z,4.30
2023-01-17T15:31:41.333Z,4.30
2023-01-17T15:34:13.967Z,4.30
2023-01-17T15:36:40.916Z,4.30
2023-01-17T15:39:20.348Z,4.30
2023-01-17T15:41:49.799Z,4.30
2023-01-17T15:44:47.091Z,4.40
2023-01-17T15:47:33.395Z,4.40
2023-01-17T15:50:02.479Z,4.40
2023-01-17T15:52:29.475Z,4.40
2023-01-17T15:55:14.832Z,4.40
2023-01-17T15:57:47.784Z,4.50
2023-01-17T16:00:19.179Z,4.50
2023-01-17T16:02:57.162Z,4.50
2023-01-17T16:05:24.420Z,4.40
2023-01-17T16:07:57.164Z,4.50
2023-01-17T16:10:28.224Z,4.60
2023-01-17T16:12:56.325Z,4.50
2023-01-17T16:15:24.384Z,4.50
2023-01-17T16:17:54.308Z,4.50
2023-01-17T16:20:38.091Z,4.50
2023-01-17T16:23:04.996Z,4.40
2023-01-17T16:25:34.475Z,4.60
2023-01-17T16:28:03.400Z,4.50
2023-01-17T16:30:30.640Z,4.60
2023-01-17T16:32:57.927Z,4.50
2023-01-17T16:35:28.240Z,4.60
2023-01-17T16:38:00.433Z,4.60
2023-01-17T16:40:30.901Z,4.60
2023-01-17T16:42:58.894Z,4.60
2023-01-17T16:45:26.120Z,4.60
2023-01-17T16:47:54.347Z,4.60
2023-01-17T16:50:24.489Z,4.70
2023-01-17T16:52:56.944Z,4.60
2023-01-17T16:55:24.993Z,4.60
2023-01-17T16:57:54.171Z,4.50
2023-01-17T17:00:22.718Z,4.70
2023-01-17T17:02:51.023Z,4.70
2023-01-17T17:05:18.234Z,4.70
2023-01-17T17:07:46.311Z,4.60
2023-01-17T17:10:19.459Z,4.70
2023-01-17T17:12:47.047Z,4.60
2023-01-17T17:15:14.184Z,4.70
2023-01-17T17:17:43.134Z,4.60
2023-01-17T17:20:13.225Z,4.70
2023-01-17T17:22:43.042Z,4.70
2023-01-17T17:25:11.780Z,4.80
2023-01-17T17:27:38.732Z,4.80
2023-01-17T17:30:06.344Z,4.70
2023-01-17T17:32:33.266Z,4.70
2023-01-17T17:35:00.437Z,4.70
2023-01-17T17:37:30.202Z,4.80
2023-01-17T17:39:57.509Z,4.80
2023-01-17T17:42:24.509Z,4.80
2023-01-17T17:44:51.542Z,4.80
2023-01-17T17:47:18.470Z,4.80
2023-01-17T17:49:45.319Z,4.80
2023-01-17T17:52:12.224Z,4.80
2023-01-17T17:54:39.101Z,4.80
2023-01-17T17:57:06.583Z,4.80
2023-01-17T17:59:33.786Z,4.80
2023-01-17T18:02:00.756Z,4.80
2023-01-17T18:04:27.846Z,4.80
2023-01-17T18:06:58.519Z,4.80
2023-01-17T18:09:25.525Z,4.80
2023-01-17T18:11:52.508Z,4.80
2023-01-17T18:14:22.144Z,4.80
2023-01-17T18:16:49.008Z,4.80
2023-01-17T18:19:18.858Z,4.90
2023-01-17T18:21:45.850Z,4.80
2023-01-17T18:24:15.546Z,4.80
2023-01-17T18:26:43.948Z,4.90
2023-01-17T18:29:15.712Z,5.00
2023-01-17T18:31:44.204Z,4.90
2023-01-17T18:34:16.786Z,4.90
2023-01-17T18:36:44.085Z,5.00
2023-01-17T18:39:13.502Z,4.90
2023-01-17T18:41:40.498Z,5.00
2023-01-17T18:44:08.079Z,4.90
2023-01-17T18:46:37.329Z,4.90
2023-01-17T18:49:04.986Z,5.00
2023-01-17T18:51:34.601Z,4.90
2023-01-17T18:54:05.907Z,4.90
2023-01-17T18:56:37.008Z,5.00
2023-01-17T18:59:06.880Z,5.00
2023-01-17T19:01:36.224Z,5.00
2023-01-17T19:04:04.706Z,5.00
2023-01-17T19:06:34.425Z,5.00
2023-01-17T19:09:02.724Z,5.00
2023-01-17T19:11:29.878Z,5.00
2023-01-17T19:13:57.167Z,5.00
2023-01-17T19:16:29.861Z,5.00
2023-01-17T19:18:58.399Z,5.00
2023-01-17T19:21:27.593Z,5.10
2023-01-17T19:23:55.550Z,5.10
2023-01-17T19:26:25.039Z,5.10
2023-01-17T19:28:52.138Z,5.00
2023-01-17T19:31:22.052Z,5.10
2023-01-17T19:33:51.685Z,5.10
2023-01-17T19:36:23.425Z,5.00
2023-01-17T19:39:03.528Z,5.00
2023-01-17T19:41:31.464Z,5.00
2023-01-17T19:44:00.659Z,5.10
2023-01-17T19:46:28.184Z,5.10
2023-01-17T19:48:56.220Z,5.10
2023-01-17T19:51:24.753Z,5.10
2023-01-17T19:53:51.594Z,5.10
2023-01-17T19:56:21.252Z,5.10
2023-01-17T19:58:48.487Z,5.00
2023-01-17T20:01:18.133Z,5.00
2023-01-17T20:03:46.486Z,5.10
2023-01-17T20:06:16.993Z,5.10
2023-01-17T20:08:45.274Z,5.10
2023-01-17T20:11:15.354Z,5.10
2023-01-17T20:13:42.458Z,5.10
2023-01-17T20:16:11.706Z,5.10
2023-01-17T20:18:38.707Z,5.10
2023-01-17T20:21:13.067Z,5.10
2023-01-17T20:23:43.075Z,5.00
2023-01-17T20:26:11.433Z,5.00
2023-01-17T20:28:40.635Z,5.00
2023-01-17T20:31:19.415Z,5.00
2023-01-17T20:33:47.154Z,5.00
2023-01-17T20:36:16.260Z,5.00
2023-01-17T20:38:44.121Z,5.00
2023-01-17T20:41:15.535Z,5.00
2023-01-17T20:43:43.912Z,5.00
2023-01-17T20:46:11.326Z,5.00
2023-01-17T20:48:47.410Z,5.00
2023-01-17T20:51:15.236Z,5.00
2023-01-17T20:53:43.512Z,5.00
2023-01-17T20:56:13.096Z,5.00
2023-01-17T20:58:40.443Z,5.10
2023-01-17T21:01:09.977Z,5.00
2023-01-17T21:03:38.094Z,5.00
2023-01-17T21:06:10.359Z,5.00
2023-01-17T21:08:42.001Z,5.00
2023-01-17T21:11:09.469Z,5.00
2023-01-17T21:13:36.448Z,4.90
2023-01-17T21:16:03.897Z,4.90
2023-01-17T21:18:32.001Z,4.90
2023-01-17T21:21:14.190Z,4.90
2023-01-17T21:23:42.744Z,4.90
2023-01-17T21:26:12.871Z,4.90
2023-01-17T21:28:41.302Z,4.90
2023-01-17T21:31:18.181Z,4.90
2023-01-17T21:33:45.402Z,5.00
2023-01-17T21:36:12.452Z,5.00
2023-01-17T21:38:39.289Z,5.00
2023-01-17T21:41:06.490Z,5.00
2023-01-17T21:43:33.335Z,4.90
2023-01-17T21:46:05.603Z,5.00
2023-01-17T21:48:32.570Z,5.00
2023-01-17T21:51:07.177Z,5.00
2023-01-17T21:53:39.201Z,5.00
2023-01-17T21:56:27.161Z,5.00
2023-01-17T21:58:56.900Z,5.00
2023-01-17T22:01:29.529Z,5.10
2023-01-17T22:03:57.708Z,5.10
2023-01-17T22:06:27.557Z,5.00
2023-01-17T22:08:54.510Z,5.00
2023-01-17T22:11:24.378Z,5.00
2023-01-17T22:13:51.231Z,5.10
2023-01-17T22:16:21.109Z,5.10
2023-01-17T22:18:47.967Z,5.00
2023-01-17T22:21:19.979Z,5.00
2023-01-17T22:23:52.502Z,5.00
2023-01-17T22:26:25.085Z,5.00
2023-01-17T22:28:53.923Z,5.10
2023-01-17T22:31:23.345Z,5.10
2023-01-17T22:33:55.196Z,5.00
2023-01-17T22:36:22.648Z,5.10
2023-01-17T22:38:49.752Z,5.10
2023-01-17T22:41:20.127Z,5.10
2023-01-17T22:43:56.017Z,5.10
2023-01-17T22:46:27.180Z,5.10
2023-01-17T22:48:55.435Z,5.10
2023-01-17T22:51:23.754Z,5.10
2023-01-17T22:53:56.009Z,5.10
2023-01-17T22:56:28.765Z,5.10
2023-01-17T22:58:55.656Z,5.10
2023-01-17T23:01:25.567Z,5.10
2023-01-17T23:03:57.717Z,5.10
2023-01-17T23:06:30.459Z,5.10
2023-01-17T23:09:00.592Z,5.00
2023-01-17T23:11:45.021Z,5.10
2023-01-17T23:14:23.286Z,5.10
2023-01-17T23:17:16.982Z,5.10
2023-01-17T23:19:47.964Z,5.10
2023-01-17T23:22:20.408Z,5.10
2023-01-17T23:24:50.354Z,5.00
2023-01-17T23:27:51.634Z,5.00
2023-01-17T23:30:21.672Z,5.10
2023-01-17T23:32:53.755Z,5.10
2023-01-17T23:35:23.723Z,5.10
2023-01-17T23:38:09.017Z,5.10
2023-01-17T23:40:37.455Z,5.00
2023-01-17T23:43:22.892Z,5.10
2023-01-17T23:45:54.743Z,5.10
2023-01-17T23:48:25.425Z,5.10
2023-01-17T23:51:00.413Z,5.10
2023-01-17T23:53:27.455Z,5.10
2023-01-17T23:55:56.526Z,5.10
2023-01-17T23:58:25.765Z,5.00
